createdAt,value
2018-02-08T00:01:03.954Z,30.93
2018-02-08T00:03:31.474Z,31.60
2018-02-08T00:05:58.961Z,31.40
2018-02-08T00:08:26.477Z,30.67
2018-02-08T00:10:54.734Z,31.50
2018-02-08T00:13:22.249Z,31.97
2018-02-08T00:15:49.737Z,30.60
2018-02-08T00:18:17.257Z,31.60
2018-02-08T00:20:44.745Z,31.77
2018-02-08T00:23:12.262Z,31.13
2018-02-08T00:25:39.758Z,32.00
2018-02-08T00:28:07.258Z,30.50
2018-02-08T00:30:35.561Z,33.10
2018-02-08T00:33:03.058Z,31.00
2018-02-08T00:35:30.570Z,31.70
2018-02-08T00:37:58.057Z,32.00
2018-02-08T00:40:25.570Z,31.80
2018-02-08T00:42:53.065Z,31.67
2018-02-08T00:45:20.561Z,31.33
2018-02-08T00:47:48.086Z,32.17
2018-02-08T00:50:15.582Z,32.80
2018-02-08T00:52:43.102Z,32.77
2018-02-08T00:55:10.597Z,33.00
2018-02-08T00:57:38.113Z,33.80
2018-02-08T01:00:05.611Z,33.10
2018-02-08T01:02:33.134Z,33.37
2018-02-08T01:05:00.629Z,33.07
2018-02-08T01:07:28.130Z,32.80
2018-02-08T01:09:55.659Z,33.27
2018-02-08T01:12:23.926Z,32.17
2018-02-08T01:14:51.454Z,31.00
2018-02-08T01:17:18.953Z,33.00
2018-02-08T01:19:47.237Z,33.20
2018-02-08T01:22:15.538Z,31.83
2018-02-08T01:24:43.057Z,32.70
2018-02-08T01:27:10.555Z,32.33
2018-02-08T01:29:38.053Z,32.70
2018-02-08T01:32:05.576Z,33.70
2018-02-08T01:34:33.073Z,32.10
2018-02-08T01:37:00.590Z,31.63
2018-02-08T01:39:28.085Z,32.07
2018-02-08T01:41:55.604Z,32.93
2018-02-08T01:44:23.106Z,33.33
2018-02-08T01:46:50.626Z,34.63
2018-02-08T01:49:24.034Z,32.47
2018-02-08T01:51:51.855Z,32.80
2018-02-08T01:54:20.118Z,33.03
2018-02-08T01:56:47.619Z,34.40
2018-02-08T01:59:15.137Z,31.97
2018-02-08T02:01:42.633Z,34.17
2018-02-08T02:04:10.149Z,31.87
2018-02-08T02:06:37.649Z,33.80
2018-02-08T02:09:05.170Z,32.80
2018-02-08T02:11:32.662Z,32.23
2018-02-08T02:14:00.185Z,33.00
2018-02-08T02:16:27.694Z,33.33
2018-02-08T02:18:55.212Z,34.37
2018-02-08T02:21:23.473Z,35.40
2018-02-08T02:23:50.965Z,32.77
2018-02-08T02:26:18.481Z,33.90
2018-02-08T02:31:18.853Z,33.87
2018-02-08T02:33:47.115Z,33.60
2018-02-08T02:36:14.634Z,36.37
2018-02-08T02:38:42.141Z,32.63
2018-02-08T02:41:10.439Z,33.67
2018-02-08T02:43:37.941Z,33.47
2018-02-08T02:46:05.463Z,32.40
2018-02-08T02:48:32.971Z,34.07
2018-02-08T02:51:00.487Z,34.40
2018-02-08T02:53:28.006Z,34.77
2018-02-08T02:55:56.275Z,33.47
2018-02-08T02:58:23.798Z,35.00
2018-02-08T03:00:51.303Z,33.60
2018-02-08T03:03:19.590Z,33.03
2018-02-08T03:05:47.854Z,34.30
2018-02-08T03:08:16.147Z,35.00
2018-02-08T03:10:43.645Z,36.23
2018-02-08T03:13:11.166Z,31.57
2018-02-08T03:15:38.666Z,35.40
2018-02-08T03:18:06.186Z,34.73
2018-02-08T03:20:33.690Z,32.77
2018-02-08T03:23:01.193Z,32.57
2018-02-08T03:25:29.477Z,33.57
2018-02-08T03:27:57.274Z,34.10
2018-02-08T03:30:26.742Z,33.07
2018-02-08T03:32:54.242Z,34.33
2018-02-08T03:35:21.767Z,35.63
2018-02-08T03:37:49.267Z,34.97
2018-02-08T03:40:16.790Z,34.63
2018-02-08T03:42:44.286Z,34.67
2018-02-08T03:45:11.806Z,36.17
2018-02-08T03:47:39.307Z,32.97
2018-02-08T03:50:06.829Z,34.20
2018-02-08T03:52:34.334Z,34.13
2018-02-08T03:55:03.371Z,33.47
2018-02-08T03:57:30.872Z,35.00
2018-02-08T03:59:58.398Z,35.47
2018-02-08T04:02:25.902Z,35.20
2018-02-08T04:04:53.398Z,33.30
2018-02-08T04:07:20.926Z,33.50
2018-02-08T04:09:48.430Z,34.30
2018-02-08T04:12:15.950Z,34.17
2018-02-08T04:14:43.454Z,36.50
2018-02-08T04:17:10.973Z,34.07
2018-02-08T04:19:39.238Z,35.90
2018-02-08T04:22:06.766Z,35.30
2018-02-08T04:24:34.262Z,36.07
2018-02-08T04:27:02.554Z,36.33
2018-02-08T04:29:30.818Z,35.07
2018-02-08T04:31:59.085Z,36.77
2018-02-08T04:34:26.609Z,39.07
2018-02-08T04:36:54.115Z,34.53
2018-02-08T04:39:34.243Z,35.00
2018-02-08T04:42:13.526Z,36.60
2018-02-08T04:44:52.889Z,35.87
2018-02-08T04:50:22.886Z,36.40
2018-02-08T04:52:50.410Z,37.17
2018-02-08T04:55:17.909Z,38.93
2018-02-08T04:57:45.406Z,35.30
2018-02-08T05:00:12.942Z,38.40
2018-02-08T05:02:40.442Z,38.80
2018-02-08T05:05:07.966Z,38.17
2018-02-08T05:07:35.470Z,37.43
2018-02-08T05:10:02.995Z,36.27
2018-02-08T05:12:30.507Z,37.10
2018-02-08T05:14:58.782Z,37.73
2018-02-08T05:17:27.070Z,37.57
2018-02-08T05:19:54.602Z,37.20
2018-02-08T05:22:22.135Z,37.50
2018-02-08T05:24:50.402Z,36.43
2018-02-08T05:27:17.921Z,36.20
2018-02-08T05:29:45.423Z,37.50
2018-02-08T05:32:12.925Z,36.63
2018-02-08T05:34:41.214Z,37.50
2018-02-08T05:37:08.722Z,49.37
2018-02-08T05:39:36.250Z,46.90
2018-02-08T05:42:03.750Z,36.50
2018-02-08T05:44:31.278Z,35.37
2018-02-08T05:46:58.786Z,37.87
2018-02-08T05:49:27.078Z,37.10
2018-02-08T05:51:55.351Z,36.57
2018-02-08T05:54:23.629Z,35.50
2018-02-08T05:56:51.918Z,37.73
2018-02-08T05:59:19.430Z,35.90
2018-02-08T06:01:46.958Z,38.33
2018-02-08T06:04:14.458Z,38.07
2018-02-08T06:06:41.986Z,36.33
2018-02-08T06:09:09.486Z,36.00
2018-02-08T06:11:37.782Z,40.43
2018-02-08T06:14:05.281Z,38.47
2018-02-08T06:16:32.778Z,37.00
2018-02-08T06:19:01.079Z,37.60
2018-02-08T06:21:28.586Z,36.57
2018-02-08T06:23:56.106Z,36.90
2018-02-08T06:26:23.612Z,38.00
2018-02-08T06:28:51.151Z,37.17
2018-02-08T06:31:18.662Z,37.83
2018-02-08T06:33:46.950Z,36.83
2018-02-08T06:36:14.455Z,37.30
2018-02-08T06:38:41.954Z,36.10
2018-02-08T06:41:10.238Z,37.40
2018-02-08T06:43:37.737Z,37.70
2018-02-08T06:46:05.262Z,39.23
2018-02-08T06:48:32.762Z,38.90
2018-02-08T06:51:00.286Z,37.83
2018-02-08T06:53:27.794Z,39.17
2018-02-08T06:55:55.318Z,38.53
2018-02-08T06:58:22.814Z,38.97
2018-02-08T07:00:50.334Z,38.20
2018-02-08T07:03:17.829Z,36.83
2018-02-08T07:05:45.330Z,39.20
2018-02-08T07:08:12.858Z,37.90
2018-02-08T07:10:40.366Z,38.50
2018-02-08T07:13:07.886Z,38.37
2018-02-08T07:15:36.210Z,36.93
2018-02-08T07:18:03.730Z,39.00
2018-02-08T07:20:32.002Z,39.37
2018-02-08T07:23:00.289Z,36.80
2018-02-08T07:25:27.785Z,37.73
2018-02-08T07:27:55.281Z,37.10
2018-02-08T07:30:22.802Z,37.37
2018-02-08T07:32:50.298Z,38.53
2018-02-08T07:35:17.818Z,37.30
2018-02-08T07:37:45.326Z,37.07
2018-02-08T07:40:13.614Z,37.00
2018-02-08T07:42:41.114Z,38.57
2018-02-08T07:45:08.639Z,36.50
2018-02-08T07:47:36.142Z,36.97
2018-02-08T07:50:03.650Z,37.07
2018-02-08T07:52:31.178Z,38.57
2018-02-08T07:54:58.683Z,37.77
2018-02-08T07:57:26.201Z,38.53
2018-02-08T07:59:53.698Z,36.67
2018-02-08T08:02:21.218Z,36.40
2018-02-08T08:04:49.482Z,35.90
2018-02-08T08:07:17.010Z,38.20
2018-02-08T08:09:44.509Z,35.67
2018-02-08T08:12:12.005Z,37.27
2018-02-08T08:14:39.530Z,37.30
2018-02-08T08:17:07.795Z,36.50
2018-02-08T08:19:35.330Z,39.90
2018-02-08T08:22:02.836Z,35.53
2018-02-08T08:24:31.126Z,37.00
2018-02-08T08:26:58.626Z,36.77
2018-02-08T08:29:26.155Z,38.70
2018-02-08T08:31:53.658Z,36.80
2018-02-08T08:34:21.158Z,36.87
2018-02-08T08:36:48.681Z,38.00
2018-02-08T08:39:16.953Z,36.43
2018-02-08T08:41:44.485Z,38.47
2018-02-08T08:44:11.983Z,39.70
2018-02-08T08:46:39.502Z,41.10
2018-02-08T08:49:07.000Z,39.77
2018-02-08T08:51:34.522Z,37.50
2018-02-08T08:54:02.018Z,39.77
2018-02-08T08:56:30.284Z,39.00
2018-02-08T08:58:57.803Z,38.43
2018-02-08T09:01:25.298Z,40.03
2018-02-08T09:03:52.818Z,39.50
2018-02-08T09:06:20.310Z,39.67
2018-02-08T09:08:47.826Z,37.80
2018-02-08T09:11:15.325Z,39.03
2018-02-08T09:13:42.846Z,38.77
2018-02-08T09:16:10.346Z,39.77
2018-02-08T09:18:37.844Z,40.10
2018-02-08T09:21:05.361Z,39.00
2018-02-08T09:23:32.858Z,38.77
2018-02-08T09:26:00.383Z,39.77
2018-02-08T09:28:27.882Z,40.90
2018-02-08T09:30:55.402Z,38.90
2018-02-08T09:33:22.902Z,40.70
2018-02-08T09:35:50.398Z,40.40
2018-02-08T09:38:17.914Z,39.77
2018-02-08T09:40:45.410Z,40.43
2018-02-08T09:43:12.925Z,39.70
2018-02-08T09:45:40.421Z,41.70
2018-02-08T09:48:07.946Z,38.37
2018-02-08T09:50:35.443Z,40.60
2018-02-08T09:53:02.943Z,40.63
2018-02-08T09:55:31.230Z,41.33
2018-02-08T09:57:59.490Z,39.87
2018-02-08T10:00:27.785Z,38.60
2018-02-08T10:02:55.293Z,39.33
2018-02-08T10:05:22.812Z,37.70
2018-02-08T10:07:50.309Z,41.87
2018-02-08T10:10:17.806Z,39.60
2018-02-08T10:12:46.086Z,41.53
2018-02-08T10:15:14.346Z,41.03
2018-02-08T10:17:41.864Z,39.80
2018-02-08T10:20:09.358Z,40.37
2018-02-08T10:22:36.874Z,38.43
2018-02-08T10:25:04.370Z,40.47
2018-02-08T10:27:31.914Z,38.50
2018-02-08T10:29:59.405Z,40.73
2018-02-08T10:32:27.666Z,39.03
2018-02-08T10:34:55.189Z,39.97
2018-02-08T10:37:22.690Z,45.67
2018-02-08T10:39:50.983Z,41.77
2018-02-08T10:42:19.242Z,40.33
2018-02-08T10:44:46.757Z,41.83
2018-02-08T10:47:14.254Z,41.10
2018-02-08T10:49:41.774Z,43.63
2018-02-08T10:52:09.265Z,43.70
2018-02-08T10:54:36.762Z,41.10
2018-02-08T10:57:04.287Z,42.87
2018-02-08T10:59:31.788Z,42.73
2018-02-08T11:01:59.310Z,44.60
2018-02-08T11:04:26.806Z,43.70
2018-02-08T11:06:54.325Z,46.50
2018-02-08T11:09:21.823Z,45.93
2018-02-08T11:11:49.327Z,47.63
2018-02-08T11:14:16.849Z,46.00
2018-02-08T11:16:44.346Z,45.83
2018-02-08T11:19:11.874Z,47.03
2018-02-08T11:21:39.375Z,47.20
2018-02-08T11:24:06.900Z,45.37
2018-02-08T11:26:34.402Z,47.37
2018-02-08T11:29:02.694Z,48.73
2018-02-08T11:31:30.199Z,48.00
2018-02-08T11:33:57.727Z,47.10
2018-02-08T11:36:25.230Z,47.07
2018-02-08T11:38:52.734Z,46.37
2018-02-08T11:41:20.259Z,45.83
2018-02-08T11:43:47.813Z,46.00
2018-02-08T11:46:15.309Z,45.00
2018-02-08T11:48:42.805Z,47.00
2018-02-08T11:51:10.326Z,46.43
2018-02-08T11:53:37.830Z,45.90
2018-02-08T11:56:05.350Z,46.90
2018-02-08T11:58:32.854Z,44.80
2018-02-08T12:01:00.378Z,45.80
2018-02-08T12:03:27.874Z,43.10
2018-02-08T12:05:55.376Z,44.57
2018-02-08T12:08:22.898Z,41.50
2018-02-08T12:10:50.394Z,42.27
2018-02-08T12:13:17.914Z,43.47
2018-02-08T12:15:45.414Z,44.13
2018-02-08T12:18:12.958Z,43.90
2018-02-08T12:20:41.229Z,45.63
2018-02-08T12:23:09.517Z,44.27
2018-02-08T12:25:37.018Z,42.63
2018-02-08T12:28:04.538Z,43.90
2018-02-08T12:30:32.038Z,44.63
2018-02-08T12:32:59.542Z,44.43
2018-02-08T12:35:27.830Z,45.40
2018-02-08T12:37:55.340Z,43.63
2018-02-08T12:40:22.861Z,42.70
2018-02-08T12:42:50.361Z,43.90
2018-02-08T12:45:17.887Z,43.87
2018-02-08T12:47:45.385Z,41.60
2018-02-08T12:50:12.894Z,42.40
2018-02-08T12:52:40.423Z,42.50
2018-02-08T12:55:08.685Z,41.00
2018-02-08T12:57:36.215Z,43.43
2018-02-08T13:00:03.718Z,41.23
2018-02-08T13:02:32.006Z,43.20
2018-02-08T13:05:00.278Z,41.37
2018-02-08T13:07:28.572Z,44.17
2018-02-08T13:09:56.074Z,43.47
2018-02-08T13:12:23.570Z,41.47
2018-02-08T13:14:51.862Z,41.40
2018-02-08T13:17:19.362Z,44.03
2018-02-08T13:19:46.882Z,41.80
2018-02-08T13:22:14.386Z,42.00
2018-02-08T13:24:41.906Z,42.30
2018-02-08T13:27:09.402Z,40.70
2018-02-08T13:29:36.927Z,43.53
2018-02-08T13:32:07.121Z,43.00
2018-02-08T13:34:34.599Z,41.40
2018-02-08T13:37:02.118Z,40.73
2018-02-08T13:39:29.624Z,42.03
2018-02-08T13:41:57.162Z,40.60
2018-02-08T13:44:24.662Z,43.50
2018-02-08T13:46:53.158Z,43.30
2018-02-08T13:49:21.450Z,42.87
2018-02-08T13:52:02.806Z,42.70
2018-02-08T13:54:32.107Z,42.63
2018-02-08T13:57:05.618Z,43.67
2018-02-08T13:59:39.717Z,40.67
2018-02-08T14:02:08.057Z,42.73
2018-02-08T14:04:35.558Z,42.70
2018-02-08T14:07:03.062Z,41.77
2018-02-08T14:09:31.351Z,41.87
2018-02-08T14:11:58.850Z,41.97
2018-02-08T14:14:26.417Z,43.70
2018-02-08T14:16:53.907Z,41.83
2018-02-08T14:19:22.194Z,41.40
2018-02-08T14:21:50.458Z,40.80
2018-02-08T14:24:18.746Z,42.10
2018-02-08T14:26:46.249Z,42.00
2018-02-08T14:29:13.750Z,40.20
2018-02-08T14:31:42.035Z,40.10
2018-02-08T14:34:10.298Z,40.50
2018-02-08T14:36:37.822Z,40.70
2018-02-08T14:39:06.082Z,40.67
2018-02-08T14:41:33.600Z,40.83
2018-02-08T14:44:01.862Z,42.60
2018-02-08T14:46:29.386Z,42.37
2018-02-08T14:48:56.881Z,41.70
2018-02-08T14:51:24.378Z,41.27
2018-02-08T14:53:51.906Z,39.63
2018-02-08T14:56:20.166Z,41.20
2018-02-08T14:58:47.682Z,42.40
2018-02-08T15:01:15.182Z,41.97
2018-02-08T15:03:42.702Z,41.87
2018-02-08T15:06:10.202Z,39.80
2018-02-08T15:08:37.722Z,41.43
2018-02-08T15:11:05.219Z,40.40
2018-02-08T15:13:32.723Z,38.97
2018-02-08T15:16:00.246Z,40.03
2018-02-08T15:18:28.510Z,42.53
2018-02-08T15:20:56.030Z,39.53
2018-02-08T15:23:23.539Z,40.60
2018-02-08T15:25:51.826Z,40.80
2018-02-08T15:28:20.090Z,40.80
2018-02-08T15:30:47.610Z,39.77
2018-02-08T15:33:15.106Z,41.63
2018-02-08T15:35:42.610Z,40.77
2018-02-08T15:38:10.130Z,40.63
2018-02-08T15:40:38.394Z,40.60
2018-02-08T15:43:05.914Z,40.60
2018-02-08T15:45:33.406Z,39.40
2018-02-08T15:48:00.922Z,40.60
2018-02-08T15:50:28.417Z,39.27
2018-02-08T15:52:55.942Z,40.67
2018-02-08T15:55:23.443Z,40.90
2018-02-08T15:57:50.946Z,39.80
2018-02-08T16:00:18.474Z,40.00
2018-02-08T16:02:46.740Z,40.97
2018-02-08T16:05:14.258Z,39.13
2018-02-08T16:07:41.770Z,43.73
2018-02-08T16:10:10.063Z,44.17
2018-02-08T16:12:37.566Z,40.80
2018-02-08T16:15:05.087Z,42.00
2018-02-08T16:17:32.591Z,42.47
2018-02-08T16:20:00.858Z,40.20
2018-02-08T16:22:28.380Z,40.47
2018-02-08T16:24:55.886Z,41.13
2018-02-08T16:27:23.410Z,42.13
2018-02-08T16:29:50.911Z,41.70
2018-02-08T16:32:18.438Z,45.10
2018-02-08T16:34:45.938Z,43.13
2018-02-08T16:37:13.458Z,47.67
2018-02-08T16:39:40.958Z,46.37
2018-02-08T16:42:09.222Z,45.50
2018-02-08T16:44:36.753Z,46.10
2018-02-08T16:47:04.250Z,47.83
2018-02-08T16:49:31.770Z,57.53
2018-02-08T16:51:59.273Z,51.27
2018-02-08T16:54:27.562Z,45.30
2018-02-08T16:56:55.067Z,49.87
2018-02-08T16:59:23.358Z,52.50
2018-02-08T17:01:50.858Z,50.33
2018-02-08T17:04:19.122Z,46.60
2018-02-08T17:06:47.406Z,47.60
2018-02-08T17:09:15.674Z,45.83
2018-02-08T17:11:43.958Z,44.37
2018-02-08T17:14:12.226Z,44.93
2018-02-08T17:16:40.515Z,43.83
2018-02-08T17:19:08.028Z,46.40
2018-02-08T17:21:35.550Z,43.40
2018-02-08T17:24:03.062Z,43.03
2018-02-08T17:26:30.585Z,43.50
2018-02-08T17:28:58.083Z,43.40
2018-02-08T17:31:25.594Z,43.87
2018-02-08T17:33:53.114Z,43.50
2018-02-08T17:36:21.378Z,45.00
2018-02-08T17:38:48.899Z,45.50
2018-02-08T17:41:16.403Z,44.07
2018-02-08T17:43:44.690Z,42.73
2018-02-08T17:46:12.949Z,43.77
2018-02-08T17:48:40.470Z,42.73
2018-02-08T17:51:07.971Z,43.20
2018-02-08T17:53:36.256Z,46.50
2018-02-08T17:56:04.546Z,43.90
2018-02-08T17:58:32.042Z,47.37
2018-02-08T18:00:59.562Z,45.60
2018-02-08T18:03:27.062Z,42.60
2018-02-08T18:05:54.586Z,44.20
2018-02-08T18:08:22.091Z,42.40
2018-02-08T18:10:49.615Z,42.93
2018-02-08T18:13:17.114Z,43.93
2018-02-08T18:15:44.619Z,52.97
2018-02-08T18:18:12.142Z,45.03
2018-02-08T18:20:39.642Z,44.07
2018-02-08T18:23:07.166Z,42.37
2018-02-08T18:25:35.438Z,43.93
2018-02-08T18:28:02.966Z,43.50
2018-02-08T18:30:30.471Z,44.57
2018-02-08T18:32:58.754Z,44.17
2018-02-08T18:35:26.251Z,44.33
2018-02-08T18:37:53.749Z,46.93
2018-02-08T18:40:21.270Z,44.03
2018-02-08T18:42:48.766Z,42.50
2018-02-08T18:45:16.296Z,46.60
2018-02-08T18:47:43.807Z,46.20
2018-02-08T18:50:11.327Z,46.70
2018-02-08T18:52:38.826Z,44.60
2018-02-08T18:55:06.350Z,43.87
2018-02-08T18:57:33.854Z,46.53
2018-02-08T19:00:01.354Z,45.20
2018-02-08T19:02:28.878Z,46.40
2018-02-08T19:04:56.373Z,49.20
2018-02-08T19:07:23.898Z,48.37
2018-02-08T19:09:51.402Z,48.00
2018-02-08T19:12:18.929Z,46.53
2018-02-08T19:14:46.430Z,47.67
2018-02-08T19:17:14.694Z,47.30
2018-02-08T19:19:42.790Z,45.10
2018-02-08T19:22:11.063Z,45.10
2018-02-08T19:24:39.399Z,46.90
2018-02-08T19:27:06.902Z,50.27
2018-02-08T19:29:35.190Z,49.33
2018-02-08T19:32:02.743Z,48.47
2018-02-08T19:34:30.218Z,47.90
2018-02-08T19:36:57.743Z,48.07
2018-02-08T19:39:25.301Z,48.20
2018-02-08T19:41:53.590Z,49.50
2018-02-08T19:44:21.858Z,47.57
2018-02-08T19:46:50.146Z,48.20
2018-02-08T19:49:18.418Z,49.00
2018-02-08T19:51:46.690Z,49.53
2018-02-08T19:54:14.977Z,50.20
2018-02-08T19:56:43.243Z,52.33
2018-02-08T19:59:11.530Z,52.90
2018-02-08T20:01:39.797Z,52.10
2018-02-08T20:04:08.091Z,50.50
2018-02-08T20:06:35.589Z,46.77
2018-02-08T20:09:03.091Z,46.00
2018-02-08T20:11:31.383Z,47.13
2018-02-08T20:13:58.882Z,46.60
2018-02-08T20:16:26.410Z,45.67
2018-02-08T20:18:53.906Z,46.57
2018-02-08T20:21:21.435Z,45.73
2018-02-08T20:23:48.934Z,48.83
2018-02-08T20:26:16.462Z,48.43
2018-02-08T20:28:43.962Z,48.07
2018-02-08T20:31:13.431Z,48.87
2018-02-08T20:33:40.934Z,49.73
2018-02-08T20:36:09.222Z,49.37
2018-02-08T20:38:36.735Z,48.70
2018-02-08T20:41:04.237Z,48.20
2018-02-08T20:43:33.126Z,48.00
2018-02-08T20:46:01.398Z,49.90
2018-02-08T20:48:29.689Z,54.43
2018-02-08T20:50:57.202Z,47.70
2018-02-08T20:53:24.726Z,49.70
2018-02-08T20:55:52.226Z,50.67
2018-02-08T20:58:19.754Z,49.63
2018-02-08T21:00:47.262Z,47.03
2018-02-08T21:03:15.538Z,47.93
2018-02-08T21:05:43.835Z,47.30
2018-02-08T21:08:11.342Z,46.27
2018-02-08T21:10:38.875Z,46.60
2018-02-08T21:13:06.389Z,44.70
2018-02-08T21:15:34.682Z,44.53
2018-02-08T21:18:02.945Z,45.53
2018-02-08T21:20:31.252Z,45.37
2018-02-08T21:22:58.759Z,44.90
2018-02-08T21:25:26.268Z,45.50
2018-02-08T21:27:53.817Z,44.47
2018-02-08T21:30:21.336Z,46.50
2018-02-08T21:32:49.637Z,45.53
2018-02-08T21:35:17.906Z,45.43
2018-02-08T21:37:45.434Z,44.90
2018-02-08T21:40:12.949Z,45.73
2018-02-08T21:42:40.470Z,48.03
2018-02-08T21:45:07.971Z,47.27
2018-02-08T21:47:35.502Z,49.87
2018-02-08T21:50:03.769Z,48.80
2018-02-08T21:52:31.278Z,50.00
2018-02-08T21:54:58.802Z,52.73
2018-02-08T21:57:27.074Z,51.90
2018-02-08T21:59:55.363Z,48.83
2018-02-08T22:02:23.639Z,52.67
2018-02-08T22:04:51.934Z,51.00
2018-02-08T22:07:19.442Z,52.03
2018-02-08T22:09:46.965Z,53.20
2018-02-08T22:12:14.482Z,51.70
2018-02-08T22:14:42.753Z,53.23
2018-02-08T22:17:11.054Z,53.10
2018-02-08T22:19:38.564Z,52.00
2018-02-08T22:22:06.095Z,52.37
2018-02-08T22:24:33.598Z,50.37
2018-02-08T22:27:01.122Z,52.83
2018-02-08T22:29:28.625Z,53.07
2018-02-08T22:31:56.922Z,51.43
2018-02-08T22:34:24.430Z,50.63
2018-02-08T22:36:51.934Z,49.27
2018-02-08T22:39:19.466Z,52.67
2018-02-08T22:41:46.974Z,48.13
2018-02-08T22:44:14.506Z,51.63
2018-02-08T22:46:42.778Z,52.30
2018-02-08T22:49:11.069Z,50.10
2018-02-08T22:51:38.573Z,49.87
2018-02-08T22:54:06.102Z,49.37
2018-02-08T22:56:33.606Z,46.93
2018-02-08T22:59:01.110Z,48.87
2018-02-08T23:01:28.647Z,49.53
2018-02-08T23:03:56.918Z,49.70
2018-02-08T23:06:25.215Z,49.50
2018-02-08T23:08:52.717Z,49.83
2018-02-08T23:11:20.242Z,51.93
2018-02-08T23:13:47.750Z,48.67
2018-02-08T23:16:15.290Z,51.30
2018-02-08T23:18:42.794Z,49.50
2018-02-08T23:21:11.062Z,49.47
2018-02-08T23:23:39.355Z,49.60
2018-02-08T23:26:06.869Z,51.27
2018-02-08T23:28:34.403Z,51.87
2018-02-08T23:31:01.907Z,48.43
2018-02-08T23:33:30.197Z,50.23
2018-02-08T23:35:58.461Z,48.67
2018-02-08T23:38:26.757Z,48.40
2018-02-08T23:40:55.030Z,47.20
2018-02-08T23:43:23.299Z,45.87
2018-02-08T23:45:51.595Z,48.17
2018-02-08T23:48:19.102Z,46.97
2018-02-08T23:50:46.631Z,48.60
2018-02-08T23:53:14.138Z,45.10
2018-02-08T23:55:41.666Z,43.57
2018-02-08T23:58:09.165Z,43.23
